sensor_id;sensor_type;location;lat;lon;timestamp;pressure;altitude;pressure_sealevel;temperature;humidity
64095;BME280;50353;51.420;5.682;2023-07-20T00:02:04;101114.41;;;18.34;84.00
64095;BME280;50353;51.420;5.682;2023-07-20T00:04:31;101106.97;;;18.38;82.52
64095;BME280;50353;51.420;5.682;2023-07-20T00:06:57;101104.06;;;18.80;80.34
64095;BME280;50353;51.420;5.682;2023-07-20T00:09:22;101096.66;;;18.43;81.55
64095;BME280;50353;51.420;5.682;2023-07-20T00:11:49;101111.22;;;18.50;82.01
64095;BME280;50353;51.420;5.682;2023-07-20T00:14:18;101118.22;;;18.41;82.58
64095;BME280;50353;51.420;5.682;2023-07-20T00:16:44;101116.88;;;18.16;83.01
64095;BME280;50353;51.420;5.682;2023-07-20T00:19:09;101116.50;;;18.31;81.87
64095;BME280;50353;51.420;5.682;2023-07-20T00:21:35;101116.16;;;18.65;79.88
64095;BME280;50353;51.420;5.682;2023-07-20T00:24:00;101109.81;;;18.85;78.46
64095;BME280;50353;51.420;5.682;2023-07-20T00:26:26;101111.22;;;18.50;80.70
64095;BME280;50353;51.420;5.682;2023-07-20T00:28:51;101101.19;;;18.52;79.88
64095;BME280;50353;51.420;5.682;2023-07-20T00:31:16;101104.44;;;18.46;80.63
64095;BME280;50353;51.420;5.682;2023-07-20T00:33:42;101094.09;;;18.32;80.79
64095;BME280;50353;51.420;5.682;2023-07-20T00:36:07;101099.28;;;17.62;83.05
64095;BME280;50353;51.420;5.682;2023-07-20T00:38:32;101092.19;;;17.82;84.13
64095;BME280;50353;51.420;5.682;2023-07-20T00:40:58;101096.88;;;17.89;82.84
64095;BME280;50353;51.420;5.682;2023-07-20T00:43:23;101095.31;;;18.08;81.89
64095;BME280;50353;51.420;5.682;2023-07-20T00:45:49;101104.13;;;18.39;79.63
64095;BME280;50353;51.420;5.682;2023-07-20T00:48:14;101109.81;;;18.66;78.10
64095;BME280;50353;51.420;5.682;2023-07-20T00:50:40;101107.41;;;18.53;78.69
64095;BME280;50353;51.420;5.682;2023-07-20T00:53:05;101105.16;;;17.77;82.04
64095;BME280;50353;51.420;5.682;2023-07-20T00:55:31;101105.38;;;17.43;85.41
64095;BME280;50353;51.420;5.682;2023-07-20T00:57:57;101098.22;;;17.74;84.16
64095;BME280;50353;51.420;5.682;2023-07-20T01:00:22;101103.25;;;17.46;85.20
64095;BME280;50353;51.420;5.682;2023-07-20T01:02:48;101103.56;;;17.95;82.49
64095;BME280;50353;51.420;5.682;2023-07-20T01:05:14;101105.47;;;17.83;82.45
64095;BME280;50353;51.420;5.682;2023-07-20T01:07:53;101102.94;;;17.61;84.28
64095;BME280;50353;51.420;5.682;2023-07-20T01:10:39;101102.50;;;18.17;81.06
64095;BME280;50353;51.420;5.682;2023-07-20T01:13:06;101106.97;;;18.38;79.45
64095;BME280;50353;51.420;5.682;2023-07-20T01:15:33;101100.97;;;17.20;83.81
64095;BME280;50353;51.420;5.682;2023-07-20T01:17:59;101107.25;;;17.31;85.06
64095;BME280;50353;51.420;5.682;2023-07-20T01:20:26;101114.28;;;17.32;85.34
64095;BME280;50353;51.420;5.682;2023-07-20T01:26:03;101114.78;;;17.68;82.05
64095;BME280;50353;51.420;5.682;2023-07-20T01:29:06;101105.19;;;17.86;81.17
64095;BME280;50353;51.420;5.682;2023-07-20T01:31:36;101111.97;;;17.90;80.81
64095;BME280;50353;51.420;5.682;2023-07-20T01:34:03;101115.22;;;17.94;79.92
64095;BME280;50353;51.420;5.682;2023-07-20T01:36:33;101108.25;;;18.03;79.65
64095;BME280;50353;51.420;5.682;2023-07-20T01:38:59;101103.16;;;16.94;84.62
64095;BME280;50353;51.420;5.682;2023-07-20T01:41:25;101098.22;;;17.11;84.15
64095;BME280;50353;51.420;5.682;2023-07-20T01:43:50;101104.50;;;16.88;85.52
64095;BME280;50353;51.420;5.682;2023-07-20T01:46:16;101104.63;;;17.62;81.08
64095;BME280;50353;51.420;5.682;2023-07-20T01:48:41;101109.03;;;17.94;79.52
64095;BME280;50353;51.420;5.682;2023-07-20T01:51:07;101110.06;;;17.81;80.25
64095;BME280;50353;51.420;5.682;2023-07-20T01:53:32;101106.88;;;17.87;78.78
64095;BME280;50353;51.420;5.682;2023-07-20T01:55:58;101107.41;;;17.81;79.77
64095;BME280;50353;51.420;5.682;2023-07-20T01:58:23;101108.34;;;17.07;84.51
64095;BME280;50353;51.420;5.682;2023-07-20T02:00:49;101111.81;;;17.40;83.08
64095;BME280;50353;51.420;5.682;2023-07-20T02:03:15;101118.75;;;17.73;81.95
64095;BME280;50353;51.420;5.682;2023-07-20T02:05:43;101117.50;;;18.30;76.22
64095;BME280;50353;51.420;5.682;2023-07-20T02:08:08;101114.66;;;17.69;81.23
64095;BME280;50353;51.420;5.682;2023-07-20T02:10:34;101113.44;;;18.04;79.80
64095;BME280;50353;51.420;5.682;2023-07-20T02:13:00;101115.81;;;18.29;78.19
64095;BME280;50353;51.420;5.682;2023-07-20T02:15:25;101116.84;;;18.06;79.72
64095;BME280;50353;51.420;5.682;2023-07-20T02:17:50;101113.91;;;18.10;78.92
64095;BME280;50353;51.420;5.682;2023-07-20T02:20:16;101120.47;;;17.74;81.22
64095;BME280;50353;51.420;5.682;2023-07-20T02:22:41;101120.47;;;17.96;80.11
64095;BME280;50353;51.420;5.682;2023-07-20T02:25:07;101123.97;;;17.96;80.41
64095;BME280;50353;51.420;5.682;2023-07-20T02:27:36;101125.00;;;17.84;80.86
64095;BME280;50353;51.420;5.682;2023-07-20T02:30:03;101133.13;;;17.30;84.21
64095;BME280;50353;51.420;5.682;2023-07-20T02:32:29;101118.75;;;17.31;84.60
64095;BME280;50353;51.420;5.682;2023-07-20T02:34:54;101127.13;;;17.17;86.64
64095;BME280;50353;51.420;5.682;2023-07-20T02:37:20;101124.50;;;17.27;86.20
64095;BME280;50353;51.420;5.682;2023-07-20T02:39:45;101123.88;;;17.34;85.52
64095;BME280;50353;51.420;5.682;2023-07-20T02:42:10;101123.88;;;17.55;85.13
64095;BME280;50353;51.420;5.682;2023-07-20T02:44:36;101123.56;;;17.16;86.87
64095;BME280;50353;51.420;5.682;2023-07-20T02:47:01;101125.88;;;17.21;87.70
64095;BME280;50353;51.420;5.682;2023-07-20T02:49:27;101128.50;;;17.32;86.59
64095;BME280;50353;51.420;5.682;2023-07-20T02:51:52;101134.56;;;17.34;87.46
64095;BME280;50353;51.420;5.682;2023-07-20T02:54:17;101136.44;;;17.44;87.16
64095;BME280;50353;51.420;5.682;2023-07-20T02:56:43;101138.28;;;17.43;87.73
64095;BME280;50353;51.420;5.682;2023-07-20T02:59:08;101141.03;;;17.20;88.71
64095;BME280;50353;51.420;5.682;2023-07-20T03:01:33;101144.00;;;17.38;88.05
64095;BME280;50353;51.420;5.682;2023-07-20T03:03:59;101138.06;;;17.35;87.98
64095;BME280;50353;51.420;5.682;2023-07-20T03:06:24;101143.81;;;17.30;89.04
64095;BME280;50353;51.420;5.682;2023-07-20T03:08:49;101138.34;;;17.32;88.80
64095;BME280;50353;51.420;5.682;2023-07-20T03:11:19;101141.06;;;17.42;88.73
64095;BME280;50353;51.420;5.682;2023-07-20T03:13:45;101144.25;;;17.35;89.26
64095;BME280;50353;51.420;5.682;2023-07-20T03:16:12;101147.59;;;17.28;89.59
64095;BME280;50353;51.420;5.682;2023-07-20T03:18:41;101157.19;;;17.30;89.75
64095;BME280;50353;51.420;5.682;2023-07-20T03:21:08;101150.94;;;17.41;89.54
64095;BME280;50353;51.420;5.682;2023-07-20T03:23:34;101158.63;;;17.34;89.56
64095;BME280;50353;51.420;5.682;2023-07-20T03:26:00;101158.00;;;17.31;90.12
64095;BME280;50353;51.420;5.682;2023-07-20T03:28:25;101154.50;;;17.30;90.84
64095;BME280;50353;51.420;5.682;2023-07-20T03:30:55;101151.50;;;17.23;91.55
64095;BME280;50353;51.420;5.682;2023-07-20T03:33:30;101151.78;;;17.09;92.73
64095;BME280;50353;51.420;5.682;2023-07-20T03:35:56;101151.72;;;17.20;91.71
64095;BME280;50353;51.420;5.682;2023-07-20T03:38:22;101157.03;;;17.32;90.49
64095;BME280;50353;51.420;5.682;2023-07-20T03:40:55;101159.13;;;17.28;90.98
64095;BME280;50353;51.420;5.682;2023-07-20T03:43:21;101171.31;;;17.42;90.12
64095;BME280;50353;51.420;5.682;2023-07-20T03:45:47;101173.47;;;17.48;90.15
64095;BME280;50353;51.420;5.682;2023-07-20T03:48:14;101172.13;;;17.21;91.75
64095;BME280;50353;51.420;5.682;2023-07-20T03:50:40;101174.72;;;17.44;90.40
64095;BME280;50353;51.420;5.682;2023-07-20T03:53:05;101170.47;;;17.42;91.16
64095;BME280;50353;51.420;5.682;2023-07-20T03:55:30;101174.72;;;17.12;92.21
64095;BME280;50353;51.420;5.682;2023-07-20T03:57:56;101175.69;;;17.11;92.40
64095;BME280;50353;51.420;5.682;2023-07-20T04:00:21;101176.25;;;17.26;91.63
64095;BME280;50353;51.420;5.682;2023-07-20T04:02:46;101181.56;;;17.04;93.91
64095;BME280;50353;51.420;5.682;2023-07-20T04:05:11;101175.41;;;17.46;91.97
64095;BME280;50353;51.420;5.682;2023-07-20T04:07:37;101180.41;;;17.18;93.65
64095;BME280;50353;51.420;5.682;2023-07-20T04:10:02;101195.50;;;17.08;94.10
64095;BME280;50353;51.420;5.682;2023-07-20T04:12:27;101190.53;;;17.03;95.54
64095;BME280;50353;51.420;5.682;2023-07-20T04:14:53;101187.81;;;17.26;93.60
64095;BME280;50353;51.420;5.682;2023-07-20T04:17:18;101189.59;;;17.26;93.71
64095;BME280;50353;51.420;5.682;2023-07-20T04:19:44;101186.81;;;17.27;93.05
64095;BME280;50353;51.420;5.682;2023-07-20T04:22:09;101185.28;;;17.13;93.99
64095;BME280;50353;51.420;5.682;2023-07-20T04:24:34;101190.00;;;17.21;93.70
64095;BME280;50353;51.420;5.682;2023-07-20T04:26:59;101182.25;;;17.18;93.84
64095;BME280;50353;51.420;5.682;2023-07-20T04:29:25;101191.25;;;17.05;94.83
64095;BME280;50353;51.420;5.682;2023-07-20T04:31:50;101183.50;;;17.35;92.17
64095;BME280;50353;51.420;5.682;2023-07-20T04:34:16;101184.88;;;17.50;91.17
64095;BME280;50353;51.420;5.682;2023-07-20T04:36:41;101185.66;;;17.62;89.90
64095;BME280;50353;51.420;5.682;2023-07-20T04:39:06;101186.72;;;17.50;90.62
64095;BME280;50353;51.420;5.682;2023-07-20T04:41:33;101188.97;;;17.54;90.01
64095;BME280;50353;51.420;5.682;2023-07-20T04:43:58;101195.66;;;17.60;89.21
64095;BME280;50353;51.420;5.682;2023-07-20T04:46:24;101196.50;;;17.61;89.48
64095;BME280;50353;51.420;5.682;2023-07-20T04:48:49;101193.50;;;17.75;87.70
64095;BME280;50353;51.420;5.682;2023-07-20T04:51:14;101193.75;;;17.72;87.66
64095;BME280;50353;51.420;5.682;2023-07-20T04:53:40;101203.72;;;17.91;86.54
64095;BME280;50353;51.420;5.682;2023-07-20T04:56:05;101196.16;;;17.75;87.39
64095;BME280;50353;51.420;5.682;2023-07-20T04:58:30;101196.09;;;17.86;87.21
64095;BME280;50353;51.420;5.682;2023-07-20T05:00:55;101195.19;;;17.55;88.55
64095;BME280;50353;51.420;5.682;2023-07-20T05:03:21;101206.72;;;17.55;88.72
64095;BME280;50353;51.420;5.682;2023-07-20T05:05:49;101197.19;;;17.42;90.04
64095;BME280;50353;51.420;5.682;2023-07-20T05:08:15;101200.91;;;17.50;89.54
64095;BME280;50353;51.420;5.682;2023-07-20T05:10:41;101194.09;;;17.57;89.14
64095;BME280;50353;51.420;5.682;2023-07-20T05:13:06;101194.88;;;17.48;89.11
64095;BME280;50353;51.420;5.682;2023-07-20T05:15:33;101200.91;;;17.50;89.37
64095;BME280;50353;51.420;5.682;2023-07-20T05:17:59;101211.16;;;17.45;89.22
64095;BME280;50353;51.420;5.682;2023-07-20T05:20:24;101202.47;;;17.53;89.26
64095;BME280;50353;51.420;5.682;2023-07-20T05:22:49;101204.88;;;17.56;88.67
64095;BME280;50353;51.420;5.682;2023-07-20T05:25:15;101202.47;;;17.53;89.10
64095;BME280;50353;51.420;5.682;2023-07-20T05:27:43;101204.94;;;17.45;89.78
64095;BME280;50353;51.420;5.682;2023-07-20T05:30:09;101199.25;;;17.49;88.93
64095;BME280;50353;51.420;5.682;2023-07-20T05:32:34;101210.28;;;17.23;89.20
64095;BME280;50353;51.420;5.682;2023-07-20T05:34:59;101199.94;;;17.51;88.39
64095;BME280;50353;51.420;5.682;2023-07-20T05:37:25;101216.63;;;17.86;87.41
64095;BME280;50353;51.420;5.682;2023-07-20T05:39:50;101210.34;;;17.66;87.62
64095;BME280;50353;51.420;5.682;2023-07-20T05:42:16;101212.69;;;17.48;88.57
64095;BME280;50353;51.420;5.682;2023-07-20T05:44:41;101206.72;;;17.55;88.99
64095;BME280;50353;51.420;5.682;2023-07-20T05:47:07;101211.56;;;17.62;89.07
64095;BME280;50353;51.420;5.682;2023-07-20T05:49:32;101209.53;;;17.75;87.53
64095;BME280;50353;51.420;5.682;2023-07-20T05:51:57;101217.94;;;17.70;86.04
64095;BME280;50353;51.420;5.682;2023-07-20T05:54:26;101216.16;;;17.92;85.07
64095;BME280;50353;51.420;5.682;2023-07-20T05:56:51;101216.75;;;17.96;84.19
64095;BME280;50353;51.420;5.682;2023-07-20T05:59:17;101227.00;;;17.79;85.71
64095;BME280;50353;51.420;5.682;2023-07-20T06:01:43;101228.34;;;18.06;84.69
64095;BME280;50353;51.420;5.682;2023-07-20T06:04:08;101232.47;;;18.41;83.25
64095;BME280;50353;51.420;5.682;2023-07-20T06:06:34;101229.50;;;18.75;80.42
64095;BME280;50353;51.420;5.682;2023-07-20T06:09:00;101237.34;;;18.57;81.04
64095;BME280;50353;51.420;5.682;2023-07-20T06:11:29;101238.19;;;18.57;81.38
64095;BME280;50353;51.420;5.682;2023-07-20T06:13:55;101241.63;;;18.69;80.43
64095;BME280;50353;51.420;5.682;2023-07-20T06:16:20;101249.34;;;18.63;80.15
64095;BME280;50353;51.420;5.682;2023-07-20T06:18:46;101247.22;;;18.97;79.88
64095;BME280;50353;51.420;5.682;2023-07-20T06:21:12;101249.06;;;18.97;79.09
64095;BME280;50353;51.420;5.682;2023-07-20T06:23:38;101241.56;;;18.90;77.68
64095;BME280;50353;51.420;5.682;2023-07-20T06:26:03;101248.94;;;19.28;77.23
64095;BME280;50353;51.420;5.682;2023-07-20T06:28:28;101244.84;;;19.14;77.79
64095;BME280;50353;51.420;5.682;2023-07-20T06:30:59;101250.78;;;19.17;77.95
64095;BME280;50353;51.420;5.682;2023-07-20T06:33:25;101251.94;;;18.84;78.12
64095;BME280;50353;51.420;5.682;2023-07-20T06:35:50;101252.56;;;18.66;79.29
64095;BME280;50353;51.420;5.682;2023-07-20T06:38:17;101252.78;;;19.35;76.47
64095;BME280;50353;51.420;5.682;2023-07-20T06:40:42;101246.72;;;19.62;76.72
64095;BME280;50353;51.420;5.682;2023-07-20T06:43:08;101250.94;;;19.35;75.50
64095;BME280;50353;51.420;5.682;2023-07-20T06:45:33;101246.97;;;20.08;73.14
64095;BME280;50353;51.420;5.682;2023-07-20T06:47:58;101245.69;;;20.12;72.57
64095;BME280;50353;51.420;5.682;2023-07-20T06:50:24;101245.59;;;20.41;71.03
64095;BME280;50353;51.420;5.682;2023-07-20T06:52:49;101251.19;;;20.96;70.12
64095;BME280;50353;51.420;5.682;2023-07-20T06:55:14;101250.88;;;20.99;68.46
64095;BME280;50353;51.420;5.682;2023-07-20T06:57:40;101245.72;;;20.50;70.94
64095;BME280;50353;51.420;5.682;2023-07-20T07:00:06;101251.31;;;20.94;69.47
64095;BME280;50353;51.420;5.682;2023-07-20T07:02:32;101246.22;;;21.37;67.87
64095;BME280;50353;51.420;5.682;2023-07-20T07:04:57;101250.56;;;21.66;67.04
64095;BME280;50353;51.420;5.682;2023-07-20T07:07:22;101247.38;;;21.88;65.60
64095;BME280;50353;51.420;5.682;2023-07-20T07:09:47;101258.22;;;21.97;66.09
64095;BME280;50353;51.420;5.682;2023-07-20T07:12:13;101257.34;;;22.40;64.12
64095;BME280;50353;51.420;5.682;2023-07-20T07:14:39;101256.88;;;22.01;63.42
64095;BME280;50353;51.420;5.682;2023-07-20T07:17:04;101262.56;;;21.98;63.16
64095;BME280;50353;51.420;5.682;2023-07-20T07:19:30;101259.41;;;22.28;63.12
64095;BME280;50353;51.420;5.682;2023-07-20T07:21:55;101271.16;;;22.80;61.65
64095;BME280;50353;51.420;5.682;2023-07-20T07:24:20;101265.19;;;22.34;60.94
64095;BME280;50353;51.420;5.682;2023-07-20T07:26:45;101265.63;;;22.47;61.34
64095;BME280;50353;51.420;5.682;2023-07-20T07:29:11;101271.00;;;22.82;60.39
64095;BME280;50353;51.420;5.682;2023-07-20T07:31:36;101267.84;;;23.03;59.77
64095;BME280;50353;51.420;5.682;2023-07-20T07:34:02;101275.38;;;22.83;60.83
64095;BME280;50353;51.420;5.682;2023-07-20T07:36:28;101273.19;;;23.29;60.21
64095;BME280;50353;51.420;5.682;2023-07-20T07:38:53;101264.91;;;23.22;58.44
64095;BME280;50353;51.420;5.682;2023-07-20T07:41:19;101265.59;;;23.33;58.84
64095;BME280;50353;51.420;5.682;2023-07-20T07:43:44;101270.78;;;23.18;60.40
64095;BME280;50353;51.420;5.682;2023-07-20T07:46:09;101278.22;;;23.24;57.74
64095;BME280;50353;51.420;5.682;2023-07-20T07:48:34;101279.03;;;22.73;58.96
64095;BME280;50353;51.420;5.682;2023-07-20T07:51:00;101280.44;;;23.37;56.50
64095;BME280;50353;51.420;5.682;2023-07-20T07:53:25;101285.97;;;23.27;54.19
64095;BME280;50353;51.420;5.682;2023-07-20T07:55:53;101290.75;;;22.99;55.74
64095;BME280;50353;51.420;5.682;2023-07-20T07:58:18;101289.94;;;23.74;52.92
64095;BME280;50353;51.420;5.682;2023-07-20T08:00:44;101286.91;;;23.85;54.36
64095;BME280;50353;51.420;5.682;2023-07-20T08:03:10;101290.75;;;23.41;54.95
64095;BME280;50353;51.420;5.682;2023-07-20T08:05:35;101286.03;;;22.92;54.62
64095;BME280;50353;51.420;5.682;2023-07-20T08:08:02;101287.56;;;23.71;54.26
64095;BME280;50353;51.420;5.682;2023-07-20T08:10:29;101289.25;;;22.61;53.91
64095;BME280;50353;51.420;5.682;2023-07-20T08:12:54;101295.59;;;23.29;54.71
64095;BME280;50353;51.420;5.682;2023-07-20T08:15:20;101287.75;;;23.02;53.95
64095;BME280;50353;51.420;5.682;2023-07-20T08:17:45;101293.84;;;22.17;57.14
64095;BME280;50353;51.420;5.682;2023-07-20T08:20:12;101296.13;;;23.41;53.69
64095;BME280;50353;51.420;5.682;2023-07-20T08:22:38;101298.84;;;23.50;52.55
64095;BME280;50353;51.420;5.682;2023-07-20T08:25:05;101292.78;;;22.96;54.43
64095;BME280;50353;51.420;5.682;2023-07-20T08:27:30;101296.81;;;23.52;56.01
64095;BME280;50353;51.420;5.682;2023-07-20T08:29:56;101302.72;;;22.61;55.41
64095;BME280;50353;51.420;5.682;2023-07-20T08:32:21;101299.53;;;23.68;51.97
64095;BME280;50353;51.420;5.682;2023-07-20T08:34:46;101293.59;;;23.32;54.31
64095;BME280;50353;51.420;5.682;2023-07-20T08:37:11;101299.41;;;23.10;55.43
64095;BME280;50353;51.420;5.682;2023-07-20T08:39:37;101292.56;;;23.33;53.32
64095;BME280;50353;51.420;5.682;2023-07-20T08:42:03;101302.91;;;23.78;52.66
64095;BME280;50353;51.420;5.682;2023-07-20T08:44:32;101297.69;;;23.60;52.76
64095;BME280;50353;51.420;5.682;2023-07-20T08:47:00;101287.94;;;23.08;52.79
64095;BME280;50353;51.420;5.682;2023-07-20T08:49:27;101297.44;;;23.21;54.80
64095;BME280;50353;51.420;5.682;2023-07-20T08:51:52;101294.25;;;22.83;53.82
64095;BME280;50353;51.420;5.682;2023-07-20T08:54:18;101296.88;;;22.66;54.54
64095;BME280;50353;51.420;5.682;2023-07-20T08:56:45;101293.94;;;22.33;54.06
64095;BME280;50353;51.420;5.682;2023-07-20T08:59:16;101288.13;;;22.38;54.86
64095;BME280;50353;51.420;5.682;2023-07-20T09:01:43;101290.00;;;22.72;54.52
64095;BME280;50353;51.420;5.682;2023-07-20T09:04:09;101295.13;;;22.57;53.39
64095;BME280;50353;51.420;5.682;2023-07-20T09:06:35;101294.84;;;22.16;54.85
64095;BME280;50353;51.420;5.682;2023-07-20T09:09:00;101294.06;;;21.79;55.56
64095;BME280;50353;51.420;5.682;2023-07-20T09:11:26;101287.66;;;21.98;56.22
64095;BME280;50353;51.420;5.682;2023-07-20T09:14:04;101284.19;;;21.88;57.65
64095;BME280;50353;51.420;5.682;2023-07-20T09:16:30;101286.16;;;22.48;56.73
64095;BME280;50353;51.420;5.682;2023-07-20T09:18:58;101284.84;;;23.79;52.82
64095;BME280;50353;51.420;5.682;2023-07-20T09:21:23;101283.53;;;24.16;50.84
64095;BME280;50353;51.420;5.682;2023-07-20T09:23:48;101282.47;;;24.42;52.75
64095;BME280;50353;51.420;5.682;2023-07-20T09:26:18;101287.72;;;23.61;54.52
64095;BME280;50353;51.420;5.682;2023-07-20T09:28:51;101278.25;;;24.39;49.93
64095;BME280;50353;51.420;5.682;2023-07-20T09:31:18;101267.19;;;24.74;48.34
64095;BME280;50353;51.420;5.682;2023-07-20T09:33:44;101276.03;;;25.22;50.47
64095;BME280;50353;51.420;5.682;2023-07-20T09:36:09;101284.91;;;25.86;47.11
64095;BME280;50353;51.420;5.682;2023-07-20T09:38:36;101280.72;;;25.05;47.40
64095;BME280;50353;51.420;5.682;2023-07-20T09:41:01;101280.59;;;25.53;45.76
64095;BME280;50353;51.420;5.682;2023-07-20T09:43:28;101280.75;;;25.28;45.29
64095;BME280;50353;51.420;5.682;2023-07-20T09:45:58;101273.63;;;25.59;43.72
64095;BME280;50353;51.420;5.682;2023-07-20T09:48:24;101270.38;;;26.40;44.55
64095;BME280;50353;51.420;5.682;2023-07-20T09:50:50;101263.53;;;26.29;45.21
64095;BME280;50353;51.420;5.682;2023-07-20T09:53:17;101266.81;;;26.54;44.13
64095;BME280;50353;51.420;5.682;2023-07-20T09:55:47;101265.41;;;26.43;44.95
64095;BME280;50353;51.420;5.682;2023-07-20T09:58:13;101264.19;;;26.31;44.34
64095;BME280;50353;51.420;5.682;2023-07-20T10:00:40;101271.91;;;27.30;44.05
64095;BME280;50353;51.420;5.682;2023-07-20T10:03:06;101260.97;;;27.24;42.94
64095;BME280;50353;51.420;5.682;2023-07-20T10:05:54;101263.78;;;27.30;43.74
64095;BME280;50353;51.420;5.682;2023-07-20T10:08:24;101266.53;;;27.15;42.09
64095;BME280;50353;51.420;5.682;2023-07-20T10:10:50;101258.03;;;27.62;40.15
64095;BME280;50353;51.420;5.682;2023-07-20T10:13:21;101260.72;;;27.19;42.52
64095;BME280;50353;51.420;5.682;2023-07-20T10:15:54;101264.06;;;26.09;43.39
64095;BME280;50353;51.420;5.682;2023-07-20T10:18:30;101260.16;;;26.42;42.76
64095;BME280;50353;51.420;5.682;2023-07-20T10:20:59;101260.16;;;26.57;43.11
64095;BME280;50353;51.420;5.682;2023-07-20T10:23:26;101255.16;;;26.01;42.84
64095;BME280;50353;51.420;5.682;2023-07-20T10:25:54;101257.88;;;25.62;45.36
64095;BME280;50353;51.420;5.682;2023-07-20T10:28:21;101253.25;;;26.24;41.24
64095;BME280;50353;51.420;5.682;2023-07-20T10:30:48;101253.84;;;25.35;43.32
64095;BME280;50353;51.420;5.682;2023-07-20T10:33:16;101259.00;;;25.45;41.57
64095;BME280;50353;51.420;5.682;2023-07-20T10:35:54;101259.81;;;25.22;43.27
64095;BME280;50353;51.420;5.682;2023-07-20T10:38:19;101246.66;;;25.65;42.63
64095;BME280;50353;51.420;5.682;2023-07-20T10:40:54;101246.03;;;24.77;45.57
64095;BME280;50353;51.420;5.682;2023-07-20T10:43:20;101245.47;;;24.90;44.53
64095;BME280;50353;51.420;5.682;2023-07-20T10:45:50;101248.94;;;24.68;44.79
64095;BME280;50353;51.420;5.682;2023-07-20T10:48:18;101238.41;;;24.81;45.16
64095;BME280;50353;51.420;5.682;2023-07-20T10:50:45;101239.31;;;25.05;45.91
64095;BME280;50353;51.420;5.682;2023-07-20T10:53:12;101237.94;;;25.09;43.55
64095;BME280;50353;51.420;5.682;2023-07-20T10:55:39;101238.56;;;26.04;42.86
64095;BME280;50353;51.420;5.682;2023-07-20T10:58:11;101236.78;;;24.63;46.79
64095;BME280;50353;51.420;5.682;2023-07-20T11:01:00;101226.31;;;24.60;47.76
64095;BME280;50353;51.420;5.682;2023-07-20T11:03:38;101229.94;;;24.36;47.42
64095;BME280;50353;51.420;5.682;2023-07-20T11:09:03;101234.25;;;23.32;49.12
64095;BME280;50353;51.420;5.682;2023-07-20T11:11:29;101229.22;;;23.53;48.30
64095;BME280;50353;51.420;5.682;2023-07-20T11:14:03;101231.88;;;23.86;45.23
64095;BME280;50353;51.420;5.682;2023-07-20T11:19:05;101230.75;;;23.89;46.55
64095;BME280;50353;51.420;5.682;2023-07-20T11:21:36;101220.09;;;24.04;46.99
64095;BME280;50353;51.420;5.682;2023-07-20T11:24:05;101224.44;;;24.05;46.33
64095;BME280;50353;51.420;5.682;2023-07-20T11:26:40;101219.75;;;23.66;48.92
64095;BME280;50353;51.420;5.682;2023-07-20T11:29:05;101223.47;;;23.89;49.14
64095;BME280;50353;51.420;5.682;2023-07-20T11:31:30;101220.94;;;23.63;47.37
64095;BME280;50353;51.420;5.682;2023-07-20T11:33:55;101218.59;;;23.93;47.05
64095;BME280;50353;51.420;5.682;2023-07-20T11:36:21;101215.16;;;24.07;46.70
64095;BME280;50353;51.420;5.682;2023-07-20T11:38:46;101211.91;;;24.28;47.58
64095;BME280;50353;51.420;5.682;2023-07-20T11:41:12;101207.94;;;24.00;47.50
64095;BME280;50353;51.420;5.682;2023-07-20T11:43:38;101212.84;;;23.38;47.77
64095;BME280;50353;51.420;5.682;2023-07-20T11:46:05;101200.50;;;23.77;47.38
64095;BME280;50353;51.420;5.682;2023-07-20T11:48:30;101207.00;;;24.72;44.07
64095;BME280;50353;51.420;5.682;2023-07-20T11:50:56;101197.97;;;25.95;45.28
64095;BME280;50353;51.420;5.682;2023-07-20T11:53:21;101208.28;;;26.45;42.54
64095;BME280;50353;51.420;5.682;2023-07-20T11:55:47;101207.78;;;26.86;41.77
64095;BME280;50353;51.420;5.682;2023-07-20T11:58:12;101202.28;;;25.90;42.48
64095;BME280;50353;51.420;5.682;2023-07-20T12:00:38;101197.81;;;26.12;43.12
64095;BME280;50353;51.420;5.682;2023-07-20T12:03:07;101186.50;;;25.93;42.32
64095;BME280;50353;51.420;5.682;2023-07-20T12:05:33;101203.72;;;25.62;43.62
64095;BME280;50353;51.420;5.682;2023-07-20T12:07:58;101203.22;;;25.59;42.63
64095;BME280;50353;51.420;5.682;2023-07-20T12:10:28;101199.94;;;25.02;43.01
64095;BME280;50353;51.420;5.682;2023-07-20T12:12:54;101205.81;;;25.06;43.63
64095;BME280;50353;51.420;5.682;2023-07-20T12:15:22;101200.31;;;24.51;44.38
64095;BME280;50353;51.420;5.682;2023-07-20T12:17:53;101186.94;;;26.72;44.24
64095;BME280;50353;51.420;5.682;2023-07-20T12:20:33;101187.09;;;25.65;42.66
64095;BME280;50353;51.420;5.682;2023-07-20T12:23:04;101194.91;;;26.43;41.91
64095;BME280;50353;51.420;5.682;2023-07-20T12:25:34;101187.16;;;26.70;40.10
64095;BME280;50353;51.420;5.682;2023-07-20T12:28:08;101175.53;;;26.98;39.23
64095;BME280;50353;51.420;5.682;2023-07-20T12:30:34;101183.75;;;27.05;39.09
64095;BME280;50353;51.420;5.682;2023-07-20T12:32:59;101181.50;;;25.82;41.09
64095;BME280;50353;51.420;5.682;2023-07-20T12:35:25;101178.81;;;25.82;41.67
64095;BME280;50353;51.420;5.682;2023-07-20T12:37:50;101178.03;;;25.58;42.68
64095;BME280;50353;51.420;5.682;2023-07-20T12:40:17;101182.44;;;25.59;41.69
64095;BME280;50353;51.420;5.682;2023-07-20T12:42:42;101186.28;;;25.19;41.77
64095;BME280;50353;51.420;5.682;2023-07-20T12:45:08;101183.91;;;25.47;43.52
64095;BME280;50353;51.420;5.682;2023-07-20T12:47:33;101187.06;;;25.04;44.71
64095;BME280;50353;51.420;5.682;2023-07-20T12:49:59;101183.47;;;25.35;42.99
64095;BME280;50353;51.420;5.682;2023-07-20T12:52:24;101180.16;;;25.48;43.40
64095;BME280;50353;51.420;5.682;2023-07-20T12:54:50;101191.56;;;25.58;42.27
64095;BME280;50353;51.420;5.682;2023-07-20T12:57:15;101179.50;;;25.46;42.81